sensor_id;sensor_type;location;lat;lon;timestamp;pressure;altitude;pressure_sealevel;temperature
4421;BMP180;11824;51.178;13.546;2023-08-06T00:00:54;99494.00;;;17.90
4421;BMP180;11824;51.178;13.546;2023-08-06T00:03:25;99494.00;;;17.90
4421;BMP180;11824;51.178;13.546;2023-08-06T00:05:53;99493.00;;;17.90
4421;BMP180;11824;51.178;13.546;2023-08-06T00:08:24;99488.00;;;17.90
4421;BMP180;11824;51.178;13.546;2023-08-06T00:10:52;99482.00;;;17.90
4421;BMP180;11824;51.178;13.546;2023-08-06T00:13:21;99478.00;;;17.80
4421;BMP180;11824;51.178;13.546;2023-08-06T00:15:50;99468.00;;;17.80
4421;BMP180;11824;51.178;13.546;2023-08-06T00:18:19;99468.00;;;17.80
4421;BMP180;11824;51.178;13.546;2023-08-06T00:20:48;99463.00;;;17.80
4421;BMP180;11824;51.178;13.546;2023-08-06T00:23:17;99463.00;;;17.80
4421;BMP180;11824;51.178;13.546;2023-08-06T00:25:47;99461.00;;;17.70
4421;BMP180;11824;51.178;13.546;2023-08-06T00:28:15;99452.00;;;17.70
4421;BMP180;11824;51.178;13.546;2023-08-06T00:30:44;99448.00;;;17.70
4421;BMP180;11824;51.178;13.546;2023-08-06T00:33:13;99451.00;;;17.60
4421;BMP180;11824;51.178;13.546;2023-08-06T00:35:42;99447.00;;;17.60
4421;BMP180;11824;51.178;13.546;2023-08-06T00:38:12;99442.00;;;17.60
4421;BMP180;11824;51.178;13.546;2023-08-06T00:40:40;99448.00;;;17.60
4421;BMP180;11824;51.178;13.546;2023-08-06T00:43:11;99441.00;;;17.60
4421;BMP180;11824;51.178;13.546;2023-08-06T00:45:39;99441.00;;;17.50
4421;BMP180;11824;51.178;13.546;2023-08-06T00:48:14;99438.00;;;17.50
4421;BMP180;11824;51.178;13.546;2023-08-06T00:50:44;99444.00;;;17.50
4421;BMP180;11824;51.178;13.546;2023-08-06T00:53:13;99437.00;;;17.50
4421;BMP180;11824;51.178;13.546;2023-08-06T00:55:42;99432.00;;;17.50
4421;BMP180;11824;51.178;13.546;2023-08-06T00:58:15;99435.00;;;17.50
4421;BMP180;11824;51.178;13.546;2023-08-06T01:00:45;99431.00;;;17.40
4421;BMP180;11824;51.178;13.546;2023-08-06T01:03:14;99428.00;;;17.40
4421;BMP180;11824;51.178;13.546;2023-08-06T01:05:43;99428.00;;;17.40
4421;BMP180;11824;51.178;13.546;2023-08-06T01:08:19;99427.00;;;17.40
4421;BMP180;11824;51.178;13.546;2023-08-06T01:10:57;99432.00;;;17.40
4421;BMP180;11824;51.178;13.546;2023-08-06T01:13:33;99439.00;;;17.40
4421;BMP180;11824;51.178;13.546;2023-08-06T01:16:04;99435.00;;;17.40
4421;BMP180;11824;51.178;13.546;2023-08-06T01:18:34;99431.00;;;17.40
4421;BMP180;11824;51.178;13.546;2023-08-06T01:21:06;99430.00;;;17.50
4421;BMP180;11824;51.178;13.546;2023-08-06T01:23:35;99435.00;;;17.50
4421;BMP180;11824;51.178;13.546;2023-08-06T01:26:10;99423.00;;;17.50
4421;BMP180;11824;51.178;13.546;2023-08-06T01:28:48;99419.00;;;17.50
4421;BMP180;11824;51.178;13.546;2023-08-06T01:31:24;99424.00;;;17.50
4421;BMP180;11824;51.178;13.546;2023-08-06T01:33:56;99412.00;;;17.50
4421;BMP180;11824;51.178;13.546;2023-08-06T01:36:28;99411.00;;;17.50
4421;BMP180;11824;51.178;13.546;2023-08-06T01:38:58;99407.00;;;17.50
4421;BMP180;11824;51.178;13.546;2023-08-06T01:41:27;99404.00;;;17.50
4421;BMP180;11824;51.178;13.546;2023-08-06T01:43:56;99400.00;;;17.50
4421;BMP180;11824;51.178;13.546;2023-08-06T01:46:25;99399.00;;;17.50
4421;BMP180;11824;51.178;13.546;2023-08-06T01:48:54;99398.00;;;17.50
4421;BMP180;11824;51.178;13.546;2023-08-06T01:51:22;99399.00;;;17.50
4421;BMP180;11824;51.178;13.546;2023-08-06T01:53:53;99400.00;;;17.50
4421;BMP180;11824;51.178;13.546;2023-08-06T01:56:22;99390.00;;;17.50
4421;BMP180;11824;51.178;13.546;2023-08-06T01:58:51;99394.00;;;17.50
4421;BMP180;11824;51.178;13.546;2023-08-06T02:01:19;99392.00;;;17.50
4421;BMP180;11824;51.178;13.546;2023-08-06T02:03:48;99390.00;;;17.50
4421;BMP180;11824;51.178;13.546;2023-08-06T02:06:17;99384.00;;;17.50
4421;BMP180;11824;51.178;13.546;2023-08-06T02:08:46;99375.00;;;17.40
4421;BMP180;11824;51.178;13.546;2023-08-06T02:11:16;99378.00;;;17.40
4421;BMP180;11824;51.178;13.546;2023-08-06T02:13:46;99386.00;;;17.40
4421;BMP180;11824;51.178;13.546;2023-08-06T02:16:15;99384.00;;;17.40
4421;BMP180;11824;51.178;13.546;2023-08-06T02:18:44;99378.00;;;17.40
4421;BMP180;11824;51.178;13.546;2023-08-06T02:21:13;99377.00;;;17.40
4421;BMP180;11824;51.178;13.546;2023-08-06T02:23:41;99380.00;;;17.30
4421;BMP180;11824;51.178;13.546;2023-08-06T02:26:10;99384.00;;;17.30
4421;BMP180;11824;51.178;13.546;2023-08-06T02:28:40;99379.00;;;17.20
4421;BMP180;11824;51.178;13.546;2023-08-06T02:31:09;99378.00;;;17.20
4421;BMP180;11824;51.178;13.546;2023-08-06T02:33:38;99375.00;;;17.20
4421;BMP180;11824;51.178;13.546;2023-08-06T02:36:06;99365.00;;;17.20
4421;BMP180;11824;51.178;13.546;2023-08-06T02:38:35;99366.00;;;17.10
4421;BMP180;11824;51.178;13.546;2023-08-06T02:41:04;99365.00;;;17.10
4421;BMP180;11824;51.178;13.546;2023-08-06T02:43:33;99361.00;;;17.10
4421;BMP180;11824;51.178;13.546;2023-08-06T02:46:03;99358.00;;;17.10
4421;BMP180;11824;51.178;13.546;2023-08-06T02:48:32;99367.00;;;17.10
4421;BMP180;11824;51.178;13.546;2023-08-06T02:51:01;99363.00;;;17.10
4421;BMP180;11824;51.178;13.546;2023-08-06T02:53:29;99357.00;;;17.00
4421;BMP180;11824;51.178;13.546;2023-08-06T02:55:59;99359.00;;;17.10
4421;BMP180;11824;51.178;13.546;2023-08-06T02:58:27;99344.00;;;17.10
4421;BMP180;11824;51.178;13.546;2023-08-06T03:01:02;99337.00;;;17.10
4421;BMP180;11824;51.178;13.546;2023-08-06T03:03:33;99337.00;;;17.00
4421;BMP180;11824;51.178;13.546;2023-08-06T03:06:02;99332.00;;;17.10
4421;BMP180;11824;51.178;13.546;2023-08-06T03:08:31;99330.00;;;17.00
4421;BMP180;11824;51.178;13.546;2023-08-06T03:11:00;99331.00;;;17.10
4421;BMP180;11824;51.178;13.546;2023-08-06T03:13:29;99332.00;;;17.00
4421;BMP180;11824;51.178;13.546;2023-08-06T03:15:59;99322.00;;;17.10
4421;BMP180;11824;51.178;13.546;2023-08-06T03:18:29;99326.00;;;17.10
4421;BMP180;11824;51.178;13.546;2023-08-06T03:20:58;99321.00;;;17.00
4421;BMP180;11824;51.178;13.546;2023-08-06T03:23:27;99312.00;;;17.10
4421;BMP180;11824;51.178;13.546;2023-08-06T03:25:55;99313.00;;;17.10
4421;BMP180;11824;51.178;13.546;2023-08-06T03:28:24;99307.00;;;17.10
4421;BMP180;11824;51.178;13.546;2023-08-06T03:30:59;99293.00;;;17.10
4421;BMP180;11824;51.178;13.546;2023-08-06T03:33:30;99292.00;;;17.10
4421;BMP180;11824;51.178;13.546;2023-08-06T03:35:59;99292.00;;;17.10
4421;BMP180;11824;51.178;13.546;2023-08-06T03:38:28;99287.00;;;17.10
4421;BMP180;11824;51.178;13.546;2023-08-06T03:40:57;99291.00;;;17.10
4421;BMP180;11824;51.178;13.546;2023-08-06T03:43:25;99284.00;;;17.00
4421;BMP180;11824;51.178;13.546;2023-08-06T03:45:54;99280.00;;;17.00
4421;BMP180;11824;51.178;13.546;2023-08-06T03:48:23;99280.00;;;17.00
4421;BMP180;11824;51.178;13.546;2023-08-06T03:50:53;99273.00;;;17.00
4421;BMP180;11824;51.178;13.546;2023-08-06T03:53:22;99267.00;;;17.00
4421;BMP180;11824;51.178;13.546;2023-08-06T03:55:51;99272.00;;;17.00
4421;BMP180;11824;51.178;13.546;2023-08-06T03:58:19;99278.00;;;17.00
4421;BMP180;11824;51.178;13.546;2023-08-06T04:00:48;99272.00;;;17.00
4421;BMP180;11824;51.178;13.546;2023-08-06T04:03:17;99271.00;;;17.00
4421;BMP180;11824;51.178;13.546;2023-08-06T04:05:46;99259.00;;;17.00
4421;BMP180;11824;51.178;13.546;2023-08-06T04:08:16;99266.00;;;17.00
4421;BMP180;11824;51.178;13.546;2023-08-06T04:10:45;99257.00;;;17.00
4421;BMP180;11824;51.178;13.546;2023-08-06T04:13:13;99248.00;;;17.10
4421;BMP180;11824;51.178;13.546;2023-08-06T04:15:42;99245.00;;;17.10
4421;BMP180;11824;51.178;13.546;2023-08-06T04:18:11;99245.00;;;17.10
4421;BMP180;11824;51.178;13.546;2023-08-06T04:20:43;99236.00;;;17.10
4421;BMP180;11824;51.178;13.546;2023-08-06T04:23:14;99232.00;;;17.10
4421;BMP180;11824;51.178;13.546;2023-08-06T04:25:43;99231.00;;;17.10
4421;BMP180;11824;51.178;13.546;2023-08-06T04:28:12;99241.00;;;17.10
4421;BMP180;11824;51.178;13.546;2023-08-06T04:30:41;99227.00;;;17.10
4421;BMP180;11824;51.178;13.546;2023-08-06T04:33:09;99231.00;;;17.10
4421;BMP180;11824;51.178;13.546;2023-08-06T04:35:38;99223.00;;;17.20
4421;BMP180;11824;51.178;13.546;2023-08-06T04:38:07;99222.00;;;17.20
4421;BMP180;11824;51.178;13.546;2023-08-06T04:40:37;99230.00;;;17.20
4421;BMP180;11824;51.178;13.546;2023-08-06T04:43:06;99217.00;;;17.20
4421;BMP180;11824;51.178;13.546;2023-08-06T04:45:35;99217.00;;;17.30
4421;BMP180;11824;51.178;13.546;2023-08-06T04:48:04;99224.00;;;17.30
4421;BMP180;11824;51.178;13.546;2023-08-06T04:50:33;99220.00;;;17.30
4421;BMP180;11824;51.178;13.546;2023-08-06T04:53:01;99213.00;;;17.30
4421;BMP180;11824;51.178;13.546;2023-08-06T04:55:30;99224.00;;;17.40
4421;BMP180;11824;51.178;13.546;2023-08-06T04:58:00;99212.00;;;17.40
4421;BMP180;11824;51.178;13.546;2023-08-06T05:00:29;99213.00;;;17.40
4421;BMP180;11824;51.178;13.546;2023-08-06T05:03:00;99213.00;;;17.40
4421;BMP180;11824;51.178;13.546;2023-08-06T05:05:29;99205.00;;;17.50
4421;BMP180;11824;51.178;13.546;2023-08-06T05:07:58;99206.00;;;17.50
4421;BMP180;11824;51.178;13.546;2023-08-06T05:10:27;99214.00;;;17.50
4421;BMP180;11824;51.178;13.546;2023-08-06T05:12:56;99212.00;;;17.60
4421;BMP180;11824;51.178;13.546;2023-08-06T05:15:26;99208.00;;;17.60
4421;BMP180;11824;51.178;13.546;2023-08-06T05:17:55;99196.00;;;17.60
4421;BMP180;11824;51.178;13.546;2023-08-06T05:20:24;99203.00;;;17.60
4421;BMP180;11824;51.178;13.546;2023-08-06T05:22:52;99197.00;;;17.70
4421;BMP180;11824;51.178;13.546;2023-08-06T05:25:21;99200.00;;;17.70
4421;BMP180;11824;51.178;13.546;2023-08-06T05:27:50;99195.00;;;17.70
4421;BMP180;11824;51.178;13.546;2023-08-06T05:30:19;99194.00;;;17.80
4421;BMP180;11824;51.178;13.546;2023-08-06T05:32:49;99191.00;;;17.80
4421;BMP180;11824;51.178;13.546;2023-08-06T05:35:18;99198.00;;;17.80
4421;BMP180;11824;51.178;13.546;2023-08-06T05:37:46;99191.00;;;17.80
4421;BMP180;11824;51.178;13.546;2023-08-06T05:40:15;99191.00;;;17.90
4421;BMP180;11824;51.178;13.546;2023-08-06T05:42:44;99190.00;;;17.90
4421;BMP180;11824;51.178;13.546;2023-08-06T05:45:13;99172.00;;;17.90
4421;BMP180;11824;51.178;13.546;2023-08-06T05:47:42;99176.00;;;17.90
4421;BMP180;11824;51.178;13.546;2023-08-06T05:50:12;99173.00;;;18.00
4421;BMP180;11824;51.178;13.546;2023-08-06T05:52:41;99179.00;;;18.00
4421;BMP180;11824;51.178;13.546;2023-08-06T05:55:10;99183.00;;;18.10
4421;BMP180;11824;51.178;13.546;2023-08-06T05:57:39;99179.00;;;18.10
4421;BMP180;11824;51.178;13.546;2023-08-06T06:00:09;99182.00;;;18.10
4421;BMP180;11824;51.178;13.546;2023-08-06T06:02:38;99184.00;;;18.20
4421;BMP180;11824;51.178;13.546;2023-08-06T06:05:07;99179.00;;;18.20
4421;BMP180;11824;51.178;13.546;2023-08-06T06:07:37;99185.00;;;18.30
4421;BMP180;11824;51.178;13.546;2023-08-06T06:10:07;99192.00;;;18.30
4421;BMP180;11824;51.178;13.546;2023-08-06T06:12:37;99190.00;;;18.40
4421;BMP180;11824;51.178;13.546;2023-08-06T06:15:07;99184.00;;;18.40
4421;BMP180;11824;51.178;13.546;2023-08-06T06:17:36;99177.00;;;18.50
4421;BMP180;11824;51.178;13.546;2023-08-06T06:20:06;99176.00;;;18.50
4421;BMP180;11824;51.178;13.546;2023-08-06T06:22:36;99176.00;;;18.50
4421;BMP180;11824;51.178;13.546;2023-08-06T06:25:06;99175.00;;;18.60
4421;BMP180;11824;51.178;13.546;2023-08-06T06:27:35;99165.00;;;18.60
4421;BMP180;11824;51.178;13.546;2023-08-06T06:30:05;99175.00;;;18.70
4421;BMP180;11824;51.178;13.546;2023-08-06T06:32:34;99176.00;;;18.70
4421;BMP180;11824;51.178;13.546;2023-08-06T06:35:03;99177.00;;;18.70
4421;BMP180;11824;51.178;13.546;2023-08-06T06:37:32;99172.00;;;18.80
4421;BMP180;11824;51.178;13.546;2023-08-06T06:40:02;99179.00;;;18.80
4421;BMP180;11824;51.178;13.546;2023-08-06T06:42:31;99177.00;;;18.90
4421;BMP180;11824;51.178;13.546;2023-08-06T06:45:00;99169.00;;;18.90
4421;BMP180;11824;51.178;13.546;2023-08-06T06:47:28;99176.00;;;19.00
4421;BMP180;11824;51.178;13.546;2023-08-06T06:49:57;99171.00;;;19.00
4421;BMP180;11824;51.178;13.546;2023-08-06T06:52:26;99176.00;;;19.10
4421;BMP180;11824;51.178;13.546;2023-08-06T06:54:55;99180.00;;;19.10
4421;BMP180;11824;51.178;13.546;2023-08-06T06:57:25;99186.00;;;19.20
4421;BMP180;11824;51.178;13.546;2023-08-06T06:59:54;99183.00;;;19.20
4421;BMP180;11824;51.178;13.546;2023-08-06T07:02:23;99181.00;;;19.20
4421;BMP180;11824;51.178;13.546;2023-08-06T07:04:51;99195.00;;;19.30
4421;BMP180;11824;51.178;13.546;2023-08-06T07:07:20;99188.00;;;19.30
4421;BMP180;11824;51.178;13.546;2023-08-06T07:09:49;99196.00;;;19.40
4421;BMP180;11824;51.178;13.546;2023-08-06T07:12:18;99191.00;;;19.30
4421;BMP180;11824;51.178;13.546;2023-08-06T07:14:48;99191.00;;;19.40
4421;BMP180;11824;51.178;13.546;2023-08-06T07:17:17;99197.00;;;19.40
4421;BMP180;11824;51.178;13.546;2023-08-06T07:19:46;99200.00;;;19.40
4421;BMP180;11824;51.178;13.546;2023-08-06T07:22:14;99193.00;;;19.30
4421;BMP180;11824;51.178;13.546;2023-08-06T07:24:43;99202.00;;;19.30
4421;BMP180;11824;51.178;13.546;2023-08-06T07:27:12;99197.00;;;19.30
4421;BMP180;11824;51.178;13.546;2023-08-06T07:29:41;99195.00;;;19.30
4421;BMP180;11824;51.178;13.546;2023-08-06T07:32:11;99191.00;;;19.30
4421;BMP180;11824;51.178;13.546;2023-08-06T07:34:40;99194.00;;;19.40
4421;BMP180;11824;51.178;13.546;2023-08-06T07:37:08;99194.00;;;19.40
4421;BMP180;11824;51.178;13.546;2023-08-06T07:39:37;99193.00;;;19.50
4421;BMP180;11824;51.178;13.546;2023-08-06T07:42:06;99195.00;;;19.50
4421;BMP180;11824;51.178;13.546;2023-08-06T07:44:35;99188.00;;;19.50
4421;BMP180;11824;51.178;13.546;2023-08-06T07:47:05;99189.00;;;19.60
4421;BMP180;11824;51.178;13.546;2023-08-06T07:49:35;99195.00;;;19.60
4421;BMP180;11824;51.178;13.546;2023-08-06T07:52:04;99191.00;;;19.60
4421;BMP180;11824;51.178;13.546;2023-08-06T07:54:33;99187.00;;;19.60
4421;BMP180;11824;51.178;13.546;2023-08-06T07:57:02;99190.00;;;19.70
4421;BMP180;11824;51.178;13.546;2023-08-06T07:59:31;99183.00;;;19.70
4421;BMP180;11824;51.178;13.546;2023-08-06T08:02:00;99187.00;;;19.60
4421;BMP180;11824;51.178;13.546;2023-08-06T08:04:29;99185.00;;;19.60
4421;BMP180;11824;51.178;13.546;2023-08-06T08:06:59;99185.00;;;19.60
4421;BMP180;11824;51.178;13.546;2023-08-06T08:09:28;99178.00;;;19.60
4421;BMP180;11824;51.178;13.546;2023-08-06T08:11:56;99169.00;;;19.60
4421;BMP180;11824;51.178;13.546;2023-08-06T08:14:27;99175.00;;;19.60
4421;BMP180;11824;51.178;13.546;2023-08-06T08:17:00;99162.00;;;19.60
4421;BMP180;11824;51.178;13.546;2023-08-06T08:19:29;99164.00;;;19.60
4421;BMP180;11824;51.178;13.546;2023-08-06T08:22:00;99159.00;;;19.60
4421;BMP180;11824;51.178;13.546;2023-08-06T08:24:28;99161.00;;;19.60
4421;BMP180;11824;51.178;13.546;2023-08-06T08:26:58;99153.00;;;19.60
4421;BMP180;11824;51.178;13.546;2023-08-06T08:29:26;99161.00;;;19.60
4421;BMP180;11824;51.178;13.546;2023-08-06T08:31:55;99157.00;;;19.70
4421;BMP180;11824;51.178;13.546;2023-08-06T08:34:24;99154.00;;;19.70
4421;BMP180;11824;51.178;13.546;2023-08-06T08:36:53;99146.00;;;19.80
4421;BMP180;11824;51.178;13.546;2023-08-06T08:39:23;99141.00;;;19.80
4421;BMP180;11824;51.178;13.546;2023-08-06T08:41:52;99142.00;;;19.90
4421;BMP180;11824;51.178;13.546;2023-08-06T08:44:22;99136.00;;;20.00
4421;BMP180;11824;51.178;13.546;2023-08-06T08:46:51;99128.00;;;20.10
4421;BMP180;11824;51.178;13.546;2023-08-06T08:49:22;99132.00;;;20.20
4421;BMP180;11824;51.178;13.546;2023-08-06T08:51:53;99140.00;;;20.30
4421;BMP180;11824;51.178;13.546;2023-08-06T08:54:26;99131.00;;;20.30
4421;BMP180;11824;51.178;13.546;2023-08-06T08:56:54;99133.00;;;20.40
4421;BMP180;11824;51.178;13.546;2023-08-06T08:59:24;99123.00;;;20.40
4421;BMP180;11824;51.178;13.546;2023-08-06T09:01:54;99128.00;;;20.40
4421;BMP180;11824;51.178;13.546;2023-08-06T09:04:23;99119.00;;;20.40
4421;BMP180;11824;51.178;13.546;2023-08-06T09:06:54;99127.00;;;20.50
4421;BMP180;11824;51.178;13.546;2023-08-06T09:09:28;99118.00;;;20.50
4421;BMP180;11824;51.178;13.546;2023-08-06T09:12:02;99116.00;;;20.60
4421;BMP180;11824;51.178;13.546;2023-08-06T09:14:33;99126.00;;;20.60
4421;BMP180;11824;51.178;13.546;2023-08-06T09:17:03;99116.00;;;20.70
4421;BMP180;11824;51.178;13.546;2023-08-06T09:19:33;99120.00;;;20.70
4421;BMP180;11824;51.178;13.546;2023-08-06T09:22:04;99117.00;;;20.70
4421;BMP180;11824;51.178;13.546;2023-08-06T09:24:41;99103.00;;;20.70
4421;BMP180;11824;51.178;13.546;2023-08-06T09:27:14;99118.00;;;20.80
4421;BMP180;11824;51.178;13.546;2023-08-06T09:29:44;99117.00;;;20.90
4421;BMP180;11824;51.178;13.546;2023-08-06T09:32:14;99117.00;;;20.90
4421;BMP180;11824;51.178;13.546;2023-08-06T09:34:45;99123.00;;;21.00
4421;BMP180;11824;51.178;13.546;2023-08-06T09:37:20;99113.00;;;21.00
4421;BMP180;11824;51.178;13.546;2023-08-06T09:39:50;99113.00;;;21.00
4421;BMP180;11824;51.178;13.546;2023-08-06T09:42:21;99110.00;;;21.00
4421;BMP180;11824;51.178;13.546;2023-08-06T09:44:50;99107.00;;;21.00
4421;BMP180;11824;51.178;13.546;2023-08-06T09:47:18;99110.00;;;21.00
4421;BMP180;11824;51.178;13.546;2023-08-06T09:49:51;99108.00;;;20.90
4421;BMP180;11824;51.178;13.546;2023-08-06T09:52:20;99103.00;;;20.80
4421;BMP180;11824;51.178;13.546;2023-08-06T09:54:51;99104.00;;;20.80
4421;BMP180;11824;51.178;13.546;2023-08-06T09:57:20;99099.00;;;20.80
4421;BMP180;11824;51.178;13.546;2023-08-06T09:59:49;99098.00;;;20.70
4421;BMP180;11824;51.178;13.546;2023-08-06T10:02:19;99096.00;;;20.70
4421;BMP180;11824;51.178;13.546;2023-08-06T10:04:53;99100.00;;;20.70
4421;BMP180;11824;51.178;13.546;2023-08-06T10:07:24;99090.00;;;20.70
4421;BMP180;11824;51.178;13.546;2023-08-06T10:09:54;99080.00;;;20.80
4421;BMP180;11824;51.178;13.546;2023-08-06T10:12:24;99073.00;;;20.80
4421;BMP180;11824;51.178;13.546;2023-08-06T10:14:55;99073.00;;;20.90
4421;BMP180;11824;51.178;13.546;2023-08-06T10:17:24;99077.00;;;20.90
4421;BMP180;11824;51.178;13.546;2023-08-06T10:20:14;99067.00;;;21.00
4421;BMP180;11824;51.178;13.546;2023-08-06T10:22:43;99072.00;;;21.10
4421;BMP180;11824;51.178;13.546;2023-08-06T10:25:17;99081.00;;;21.10
4421;BMP180;11824;51.178;13.546;2023-08-06T10:27:54;99075.00;;;21.20
4421;BMP180;11824;51.178;13.546;2023-08-06T10:30:25;99065.00;;;21.20
4421;BMP180;11824;51.178;13.546;2023-08-06T10:32:54;99065.00;;;21.30
4421;BMP180;11824;51.178;13.546;2023-08-06T10:35:34;99066.00;;;21.30
4421;BMP180;11824;51.178;13.546;2023-08-06T10:38:08;99062.00;;;21.40
4421;BMP180;11824;51.178;13.546;2023-08-06T10:40:40;99061.00;;;21.50
4421;BMP180;11824;51.178;13.546;2023-08-06T10:43:25;99058.00;;;21.50
4421;BMP180;11824;51.178;13.546;2023-08-06T10:45:55;99054.00;;;21.60
4421;BMP180;11824;51.178;13.546;2023-08-06T10:48:31;99054.00;;;21.70
4421;BMP180;11824;51.178;13.546;2023-08-06T10:51:00;99041.00;;;21.80
4421;BMP180;11824;51.178;13.546;2023-08-06T10:53:30;99032.00;;;21.90
4421;BMP180;11824;51.178;13.546;2023-08-06T10:56:02;99035.00;;;22.00
4421;BMP180;11824;51.178;13.546;2023-08-06T10:58:40;99040.00;;;22.10
4421;BMP180;11824;51.178;13.546;2023-08-06T11:01:09;99037.00;;;22.30
4421;BMP180;11824;51.178;13.546;2023-08-06T11:03:39;99031.00;;;22.40
4421;BMP180;11824;51.178;13.546;2023-08-06T11:06:08;99029.00;;;22.60
4421;BMP180;11824;51.178;13.546;2023-08-06T11:08:38;99029.00;;;22.70
4421;BMP180;11824;51.178;13.546;2023-08-06T11:11:13;99025.00;;;22.90
4421;BMP180;11824;51.178;13.546;2023-08-06T11:13:43;99017.00;;;23.00
4421;BMP180;11824;51.178;13.546;2023-08-06T11:16:14;99015.00;;;23.10
4421;BMP180;11824;51.178;13.546;2023-08-06T11:18:43;99015.00;;;23.10
4421;BMP180;11824;51.178;13.546;2023-08-06T11:21:12;99014.00;;;23.20
4421;BMP180;11824;51.178;13.546;2023-08-06T11:23:41;99013.00;;;23.30
4421;BMP180;11824;51.178;13.546;2023-08-06T11:26:11;99011.00;;;23.30
4421;BMP180;11824;51.178;13.546;2023-08-06T11:28:43;99004.00;;;23.30
4421;BMP180;11824;51.178;13.546;2023-08-06T11:31:19;99007.00;;;23.40
4421;BMP180;11824;51.178;13.546;2023-08-06T11:33:50;99006.00;;;23.40
4421;BMP180;11824;51.178;13.546;2023-08-06T11:36:29;99008.00;;;23.50
4421;BMP180;11824;51.178;13.546;2023-08-06T11:38:58;99006.00;;;23.60
4421;BMP180;11824;51.178;13.546;2023-08-06T11:41:30;99012.00;;;23.60
4421;BMP180;11824;51.178;13.546;2023-08-06T11:43:59;99011.00;;;23.60
4421;BMP180;11824;51.178;13.546;2023-08-06T11:46:28;99001.00;;;23.60
4421;BMP180;11824;51.178;13.546;2023-08-06T11:48:58;99005.00;;;23.60
4421;BMP180;11824;51.178;13.546;2023-08-06T11:51:28;99002.00;;;23.60
4421;BMP180;11824;51.178;13.546;2023-08-06T11:53:57;99006.00;;;23.50
4421;BMP180;11824;51.178;13.546;2023-08-06T11:56:26;99002.00;;;23.50
4421;BMP180;11824;51.178;13.546;2023-08-06T11:58:57;99006.00;;;23.40
4421;BMP180;11824;51.178;13.546;2023-08-06T12:01:26;99010.00;;;23.50
4421;BMP180;11824;51.178;13.546;2023-08-06T12:03:59;98997.00;;;23.50
4421;BMP180;11824;51.178;13.546;2023-08-06T12:06:28;99002.00;;;23.60
4421;BMP180;11824;51.178;13.546;2023-08-06T12:08:56;98994.00;;;23.60
4421;BMP180;11824;51.178;13.546;2023-08-06T12:11:25;98993.00;;;23.70
4421;BMP180;11824;51.178;13.546;2023-08-06T12:13:56;98996.00;;;23.80
4421;BMP180;11824;51.178;13.546;2023-08-06T12:16:25;98997.00;;;23.90
4421;BMP180;11824;51.178;13.546;2023-08-06T12:18:54;98992.00;;;23.90
4421;BMP180;11824;51.178;13.546;2023-08-06T12:21:23;98986.00;;;23.80
4421;BMP180;11824;51.178;13.546;2023-08-06T12:23:51;98996.00;;;23.70
4421;BMP180;11824;51.178;13.546;2023-08-06T12:26:20;98997.00;;;23.70
4421;BMP180;11824;51.178;13.546;2023-08-06T12:28:49;98991.00;;;23.70
4421;BMP180;11824;51.178;13.546;2023-08-06T12:31:19;98991.00;;;23.70
4421;BMP180;11824;51.178;13.546;2023-08-06T12:33:48;98992.00;;;23.70
4421;BMP180;11824;51.178;13.546;2023-08-06T12:36:17;98990.00;;;23.70
4421;BMP180;11824;51.178;13.546;2023-08-06T12:38:46;98981.00;;;23.60
4421;BMP180;11824;51.178;13.546;2023-08-06T12:41:14;98982.00;;;23.60
4421;BMP180;11824;51.178;13.546;2023-08-06T12:43:43;98979.00;;;23.60
4421;BMP180;11824;51.178;13.546;2023-08-06T12:46:12;98969.00;;;23.60
4421;BMP180;11824;51.178;13.546;2023-08-06T12:48:42;98972.00;;;23.70
4421;BMP180;11824;51.178;13.546;2023-08-06T12:51:11;98969.00;;;23.70
4421;BMP180;11824;51.178;13.546;2023-08-06T12:53:40;98967.00;;;23.80
4421;BMP180;11824;51.178;13.546;2023-08-06T12:56:08;98971.00;;;23.80
4421;BMP180;11824;51.178;13.546;2023-08-06T12:58:37;98960.00;;;23.80
4421;BMP180;11824;51.178;13.546;2023-08-06T13:01:07;98965.00;;;23.80
4421;BMP180;11824;51.178;13.546;2023-08-06T13:03:35;98960.00;;;23.80
4421;BMP180;11824;51.178;13.546;2023-08-06T13:06:06;98956.00;;;23.80
4421;BMP180;11824;51.178;13.546;2023-08-06T13:08:37;98971.00;;;23.70
4421;BMP180;11824;51.178;13.546;2023-08-06T13:11:06;98964.00;;;23.70
4421;BMP180;11824;51.178;13.546;2023-08-06T13:13:35;98964.00;;;23.70
4421;BMP180;11824;51.178;13.546;2023-08-06T13:16:03;98956.00;;;23.70
4421;BMP180;11824;51.178;13.546;2023-08-06T13:18:32;98966.00;;;23.70
4421;BMP180;11824;51.178;13.546;2023-08-06T13:21:01;98958.00;;;23.70
4421;BMP180;11824;51.178;13.546;2023-08-06T13:23:31;98967.00;;;23.70
4421;BMP180;11824;51.178;13.546;2023-08-06T13:26:00;98960.00;;;23.70
4421;BMP180;11824;51.178;13.546;2023-08-06T13:28:29;98960.00;;;23.70
4421;BMP180;11824;51.178;13.546;2023-08-06T13:30:58;98958.00;;;23.70
4421;BMP180;11824;51.178;13.546;2023-08-06T13:33:26;98961.00;;;23.70
4421;BMP180;11824;51.178;13.546;2023-08-06T13:35:55;98956.00;;;23.70
4421;BMP180;11824;51.178;13.546;2023-08-06T13:38:24;98959.00;;;23.80
4421;BMP180;11824;51.178;13.546;2023-08-06T13:40:54;98963.00;;;23.80
4421;BMP180;11824;51.178;13.546;2023-08-06T13:43:24;98951.00;;;23.80
4421;BMP180;11824;51.178;13.546;2023-08-06T13:45:52;98950.00;;;23.80
4421;BMP180;11824;51.178;13.546;2023-08-06T13:48:21;98952.00;;;23.80
4421;BMP180;11824;51.178;13.546;2023-08-06T13:50:50;98952.00;;;23.80
4421;BMP180;11824;51.178;13.546;2023-08-06T13:53:19;98959.00;;;23.80
4421;BMP180;11824;51.178;13.546;2023-08-06T13:55:48;98945.00;;;23.70
4421;BMP180;11824;51.178;13.546;2023-08-06T13:58:18;98947.00;;;23.70
4421;BMP180;11824;51.178;13.546;2023-08-06T14:00:48;98944.00;;;23.60
4421;BMP180;11824;51.178;13.546;2023-08-06T14:03:16;98943.00;;;23.50
4421;BMP180;11824;51.178;13.546;2023-08-06T14:05:45;98936.00;;;23.40
4421;BMP180;11824;51.178;13.546;2023-08-06T14:08:14;98932.00;;;23.40
4421;BMP180;11824;51.178;13.546;2023-08-06T14:10:45;98941.00;;;23.40
4421;BMP180;11824;51.178;13.546;2023-08-06T14:13:14;98940.00;;;23.40
4421;BMP180;11824;51.178;13.546;2023-08-06T14:15:44;98932.00;;;23.40
4421;BMP180;11824;51.178;13.546;2023-08-06T14:18:15;98930.00;;;23.40
4421;BMP180;11824;51.178;13.546;2023-08-06T14:20:44;98932.00;;;23.40
4421;BMP180;11824;51.178;13.546;2023-08-06T14:23:13;98928.00;;;23.40